Startpagina
METAR-TAF:

METAR-TAF

Vliegvelden :

Beiroet, Libanon

breedte: 33-49N, lengte: 035-29E, hoogte: 29 m

Actueel weer

Dit bericht is 58 minuten geleden gemaakt, om 16:00 UTC
Wind 8 kt uit het westzuidwesten
Temperatuur 29°C
Vochtigheid 66%
Druk 1008 hPa
Zicht 10 km of meer
Weinig wolken op 2600 ft

METAR: OLBA 151600Z 24008KT 9999 FEW026 29/22 Q1008 NOSIG

Tijdstip: 19:58 (16:58 UTC)

Verwachting

Dit bericht is 6 uur en het 58 minuten geleden gemaakt, om 10:00 UTC
Verwachting geldig van 15 om 12 UTC tot 16 om 18 UTC
Wind 10 kt uit het westzuidwesten
Zicht: 8000 m
Verspreide wolken op 2300 ft
Wijzigt naar
van 15 om 18 UTC tot 15 om 21 UTC
Wind 2 kt uit variabele richting
Wijzigt naar
van 16 om 00 UTC tot 16 om 03 UTC
Wind 10 kt uit het zuidzuidwesten
Tijdelijke
van 15 om 18 UTC tot 16 om 06 UTC
Zicht: 5000 m
nevel

TAF: OLBA 151000Z 1512/1618 25010KT 8000 SCT023 BECMG 1518/1521 VRB02KT BECMG 1600/1603 20010KT TEMPO 1518/1606 5000 BR

Waarnemingen en weersverwachtingen van meer dan 4000 vliegvelden (METAR en TAF).

De beschikbare stations zijn de gele en rode punten op de kaart.

Ga met uw muis naar het station om de naam te zien.

Klik dan om waarnemingen en weersverwachtingen te zien.

kaart wijzigen: klik op de groene knoppen met een zwart kruis om in te zoomen, op de groene knop met een streepje om uit te zoomen of op de groene pijlen voor aangrenzende kaarten.


METAR-TAF: